Time;durP1;ratioP1;P1;durP2;ratioP2;P2;SDS_P1;SDS_P2;PMS_P1;PMS_P2;Temp;Humidity;BMP_temperature;BMP_pressure;BME280_temperature;BME280_humidity;BME280_pressure;Samples;Min_cycle;Max_cycle;Signal;HPM_P1;HPM_P2
2022/10/03 00:02:31;;;;;;;1.10;1.00;;;;;;;-143.84;54.77;45121.44;5011979;28;20443;-76
2022/10/03 00:05:14;;;;;;;4.40;1.60;;;;;;;-143.84;54.70;45087.16;5011622;28;20486;-76
2022/10/03 00:08:04;;;;;;;3.13;1.60;;;;;;;-143.84;54.57;45089.06;5011844;28;20455;-76
2022/10/03 00:10:42;;;;;;;2.47;1.50;;;;;;;-143.84;54.41;45073.81;5011709;28;20516;-76
2022/10/03 00:13:21;;;;;;;2.43;1.83;;;;;;;-143.84;54.31;45087.16;5011905;28;20493;-76
2022/10/03 00:16:02;;;;;;;3.00;1.30;;;;;;;-143.84;54.46;45115.72;5011721;28;20509;-76
2022/10/03 00:18:39;;;;;;;3.10;1.10;;;;;;;-143.84;54.58;45087.16;5011746;28;20964;-76
2022/10/03 00:21:19;;;;;;;1.10;0.83;;;;;;;-143.84;55.35;45098.56;5011686;28;20443;-76
2022/10/03 00:23:56;;;;;;;1.40;0.90;;;;;;;-143.84;55.74;45096.66;5011091;28;20445;-75
2022/10/03 00:26:30;;;;;;;1.50;1.13;;;;;;;-143.84;56.17;45081.44;5011152;28;20497;-76
2022/10/03 00:29:25;;;;;;;2.60;1.10;;;;;;;-143.84;56.66;45094.78;5011102;28;20483;-76
2022/10/03 00:32:02;;;;;;;2.80;1.50;;;;;;;-143.84;56.59;45081.44;5011198;28;20977;-76
2022/10/03 00:34:41;;;;;;;2.20;1.27;;;;;;;-143.84;56.64;45079.53;5011219;28;20505;-76
2022/10/03 00:37:23;;;;;;;1.60;1.13;;;;;;;-143.84;56.38;45108.09;5011023;28;20503;-76
2022/10/03 00:40:11;;;;;;;4.83;1.47;;;;;;;-143.84;56.24;45085.25;5010701;28;20425;-76
2022/10/03 00:43:26;;;;;;;2.80;1.30;;;;;;;-143.84;55.81;45070.00;5018543;28;20463;-76
2022/10/03 00:46:20;;;;;;;1.30;1.20;;;;;;;-143.84;55.66;45100.47;4969072;28;20497;-76
2022/10/03 00:49:26;;;;;;;3.17;1.40;;;;;;;-143.84;55.49;45106.19;5027384;28;20446;-76
2022/10/03 00:52:12;;;;;;;3.10;1.20;;;;;;;-143.84;55.41;45094.78;5007018;28;20794;-75
2022/10/03 00:54:53;;;;;;;1.27;1.17;;;;;;;-143.84;54.75;45081.44;5030633;28;20443;-76
2022/10/03 00:57:36;;;;;;;6.07;1.47;;;;;;;-143.84;54.50;45081.44;5030704;28;20438;-76
2022/10/03 01:00:16;;;;;;;2.37;1.33;;;;;;;-143.84;54.63;45092.88;5030473;28;20455;-76
2022/10/03 01:02:54;;;;;;;2.90;1.30;;;;;;;-143.84;54.42;45098.56;5030682;28;20879;-76
2022/10/03 01:05:33;;;;;;;3.57;1.20;;;;;;;-143.84;54.64;45094.78;5030468;28;20565;-76
2022/10/03 01:08:28;;;;;;;1.50;1.40;;;;;;;-143.84;54.63;45075.72;5030706;28;20454;-76
2022/10/03 01:11:06;;;;;;;2.70;1.30;;;;;;;-143.84;55.04;45092.88;5030644;28;20569;-76
2022/10/03 01:13:46;;;;;;;1.60;1.17;;;;;;;-143.84;55.14;45104.28;5030667;28;20458;-76
2022/10/03 01:16:23;;;;;;;2.90;1.50;;;;;;;-143.84;55.61;45087.16;5030931;28;20860;-77
2022/10/03 01:19:02;;;;;;;1.60;1.40;;;;;;;-143.84;55.30;45075.72;5030766;28;20452;-77
2022/10/03 01:21:42;;;;;;;2.07;1.30;;;;;;;-143.84;55.67;45092.88;5030748;28;20885;-77
2022/10/03 01:24:49;;;;;;;5.73;1.87;;;;;;;-143.84;55.74;45054.78;5030953;28;20440;-76
2022/10/03 01:27:25;;;;;;;1.80;1.50;;;;;;;-143.84;56.10;45102.38;5030923;28;20499;-77
2022/10/03 01:32:51;;;;;;;4.90;1.50;;;;;;;-143.84;56.11;45089.06;5030432;28;20468;-76
2022/10/03 01:35:30;;;;;;;3.90;1.90;;;;;;;-143.84;56.42;45089.06;5029732;28;20453;-77
2022/10/03 01:38:07;;;;;;;1.40;1.27;;;;;;;-143.84;56.11;45087.16;5030012;28;20522;-76
2022/10/03 01:40:40;;;;;;;3.83;1.13;;;;;;;-143.84;56.18;45071.91;5030131;28;20999;-76
2022/10/03 01:43:17;;;;;;;4.73;1.53;;;;;;;-143.84;56.21;45083.34;5029873;28;20438;-76
2022/10/03 01:45:56;;;;;;;1.30;1.20;;;;;;;-143.84;56.19;45108.09;5029508;28;20489;-77
2022/10/03 01:48:32;;;;;;;4.00;1.60;;;;;;;-143.84;55.94;45106.19;5029606;28;20957;-76
2022/10/03 01:51:05;;;;;;;2.20;1.17;;;;;;;-143.84;56.22;45064.31;5030059;28;20516;-76
2022/10/03 01:53:48;;;;;;;2.17;1.37;;;;;;;-143.84;56.13;45077.63;5029907;28;20437;-76
2022/10/03 01:56:25;;;;;;;6.80;1.43;;;;;;;-143.84;56.11;45111.91;5029692;28;20446;-76
2022/10/03 01:59:02;;;;;;;2.57;1.20;;;;;;;-143.84;56.26;45098.56;5030171;28;20565;-76
2022/10/03 02:01:40;;;;;;;1.60;1.00;;;;;;;-143.84;56.24;45098.56;5030143;28;20939;-76
2022/10/03 02:04:15;;;;;;;1.47;0.90;;;;;;;-143.84;56.38;45104.28;5029090;28;20456;-76
2022/10/03 02:06:53;;;;;;;2.03;1.67;;;;;;;-143.84;56.10;45098.56;5030161;28;21321;-76
2022/10/03 02:09:31;;;;;;;2.23;1.23;;;;;;;-143.84;56.09;45117.63;5031881;28;20469;-76
2022/10/03 02:12:08;;;;;;;2.03;1.47;;;;;;;-143.84;56.32;45117.63;5032209;28;20480;-76
2022/10/03 02:14:45;;;;;;;2.17;1.17;;;;;;;-143.84;56.18;45066.22;5033101;28;20449;-76
2022/10/03 02:17:24;;;;;;;4.50;1.50;;;;;;;-143.84;56.08;45083.34;5033687;28;21263;-76
2022/10/03 02:20:01;;;;;;;3.60;1.40;;;;;;;-143.84;56.41;45092.88;5033807;28;20450;-76
2022/10/03 02:22:33;;;;;;;1.40;1.13;;;;;;;-143.84;56.60;45119.53;5034150;28;20441;-76
2022/10/03 02:25:21;;;;;;;1.30;1.10;;;;;;;-143.84;56.77;45100.47;5033705;28;20442;-76
2022/10/03 02:28:29;;;;;;;3.93;1.00;;;;;;;-143.84;56.88;45092.88;5033619;28;20446;-76
2022/10/03 02:31:38;;;;;;;2.70;1.20;;;;;;;-143.84;57.16;45089.06;5033022;28;20441;-77
2022/10/03 02:34:30;;;;;;;3.27;1.40;;;;;;;-143.84;57.29;45111.91;5031375;28;20797;-76
2022/10/03 02:37:28;;;;;;;1.93;1.30;;;;;;;-143.84;57.71;45098.56;4994830;28;20443;-76
2022/10/03 02:40:14;;;;;;;4.33;1.30;;;;;;;-143.84;57.68;45119.53;5032483;28;20442;-76
2022/10/03 02:43:18;;;;;;;1.50;1.10;;;;;;;-143.84;58.18;45111.91;5032565;28;20442;-76
2022/10/03 02:46:13;;;;;;;3.10;1.40;;;;;;;-143.84;58.38;45062.41;5032379;28;20470;-76
2022/10/03 02:49:13;;;;;;;2.33;1.47;;;;;;;-143.84;58.13;45089.06;5032287;28;20442;-77
2022/10/03 02:52:10;;;;;;;2.40;1.30;;;;;;;-143.84;58.42;45096.66;5031868;28;20450;-77
2022/10/03 02:54:59;;;;;;;1.83;1.57;;;;;;;-143.84;57.93;45096.66;5032334;28;20454;-76
2022/10/03 02:57:54;;;;;;;6.20;1.50;;;;;;;-143.84;58.03;45094.78;5032148;28;20457;-76
2022/10/03 03:00:23;;;;;;;1.47;1.13;;;;;;;-143.84;58.01;45104.28;5032161;28;20455;-76
2022/10/03 03:03:22;;;;;;;2.50;0.97;;;;;;;-143.84;58.22;45110.00;5032269;28;20439;-77
2022/10/03 03:06:22;;;;;;;1.43;1.30;;;;;;;-143.84;58.36;45102.38;5032036;28;20546;-77
2022/10/03 03:09:16;;;;;;;2.60;1.93;;;;;;;-143.84;58.63;45090.97;5032080;28;20445;-76
2022/10/03 03:12:20;;;;;;;3.03;1.33;;;;;;;-143.84;58.64;45127.13;5031679;28;20491;-76
2022/10/03 03:15:13;;;;;;;7.23;1.90;;;;;;;-143.84;59.10;45106.19;5018563;28;21140;-76
2022/10/03 03:17:51;;;;;;;2.37;1.20;;;;;;;-143.84;59.44;45070.00;5031898;28;20864;-77
2022/10/03 03:20:39;;;;;;;2.13;1.40;;;;;;;-143.84;59.79;45132.84;5031817;28;21004;-76
2022/10/03 03:23:39;;;;;;;2.80;1.97;;;;;;;-143.84;59.95;45119.53;5031538;28;20444;-76
2022/10/03 03:26:26;;;;;;;2.73;1.67;;;;;;;-143.84;60.24;45079.53;5029304;28;20481;-76
2022/10/03 03:29:03;;;;;;;3.37;1.87;;;;;;;-143.84;60.30;45079.53;5031672;28;20464;-76
2022/10/03 03:31:37;;;;;;;4.93;1.40;;;;;;;-143.84;60.49;45117.63;5031951;28;20434;-76
2022/10/03 03:34:09;;;;;;;3.13;1.80;;;;;;;-143.84;60.44;45087.16;5031346;28;20453;-76
2022/10/03 03:36:43;;;;;;;2.20;1.57;;;;;;;-143.84;60.72;45117.63;5031616;28;20442;-77
2022/10/03 03:39:25;;;;;;;2.50;1.07;;;;;;;-143.84;60.34;45075.72;5031514;28;20455;-76
2022/10/03 03:42:21;;;;;;;6.50;1.90;;;;;;;-143.84;60.69;45106.19;5031495;28;20445;-76
2022/10/03 03:45:03;;;;;;;1.87;1.50;;;;;;;-143.84;60.62;45110.00;5031235;28;20453;-76
2022/10/03 03:47:43;;;;;;;5.43;1.97;;;;;;;-143.84;60.46;45102.38;5031560;28;20585;-76
2022/10/03 03:50:30;;;;;;;4.43;1.70;;;;;;;-143.84;60.66;45090.97;5031364;28;20452;-76
2022/10/03 03:53:22;;;;;;;4.27;1.57;;;;;;;-143.84;60.29;45119.53;5031196;28;20840;-76
2022/10/03 03:56:07;;;;;;;4.37;1.80;;;;;;;-143.84;60.40;45090.97;5031273;28;20590;-76
2022/10/03 03:58:40;;;;;;;2.07;1.60;;;;;;;-143.84;60.39;45102.38;5031291;28;20445;-76
2022/10/03 04:01:26;;;;;;;2.13;1.10;;;;;;;-143.84;60.64;45068.13;5030975;28;20453;-77
2022/10/03 04:04:07;;;;;;;2.57;1.70;;;;;;;-143.84;60.58;45115.72;5031183;28;20450;-77
2022/10/03 04:06:48;;;;;;;11.43;1.60;;;;;;;-143.84;60.72;45111.91;5031246;28;20506;-77
2022/10/03 04:09:36;;;;;;;2.17;1.37;;;;;;;-143.84;60.61;45110.00;5025323;28;20440;-77
2022/10/03 04:12:14;;;;;;;1.30;1.20;;;;;;;-143.84;60.54;45110.00;5018476;28;20565;-77
2022/10/03 04:15:06;;;;;;;3.17;1.50;;;;;;;-143.84;60.76;45104.28;5027365;28;21832;-77
2022/10/03 04:21:01;;;;;;;2.93;1.90;;;;;;;-143.84;60.89;45102.38;5010911;28;20422;-76
2022/10/03 04:23:48;;;;;;;7.00;2.87;;;;;;;-143.84;61.01;45106.19;5010485;28;20452;-77
2022/10/03 04:26:31;;;;;;;7.07;4.30;;;;;;;-143.84;60.95;45075.72;5010945;28;20490;-77
2022/10/03 04:29:42;;;;;;;8.40;3.83;;;;;;;-143.84;61.19;45089.06;5032108;28;20511;-79
2022/10/03 04:32:31;;;;;;;2.10;1.97;;;;;;;-143.84;61.06;45119.53;5024453;28;20440;-77
2022/10/03 04:35:20;;;;;;;3.33;1.53;;;;;;;-143.84;60.90;45111.91;5028003;28;20481;-77
2022/10/03 04:37:56;;;;;;;1.77;1.57;;;;;;;-143.84;61.32;45089.06;5021830;28;20458;-74
2022/10/03 04:40:34;;;;;;;3.63;1.00;;;;;;;-143.84;61.14;45083.34;5019908;28;20449;-77
2022/10/03 04:43:10;;;;;;;4.07;1.00;;;;;;;-143.84;60.75;45098.56;5016720;28;20866;-76
2022/10/03 04:46:02;;;;;;;3.10;1.63;;;;;;;-143.84;60.50;45094.78;5019028;28;21278;-77
2022/10/03 04:48:38;;;;;;;4.93;1.47;;;;;;;-143.84;60.36;45121.44;5010497;28;20452;-77
2022/10/03 04:51:29;;;;;;;1.70;1.20;;;;;;;-143.84;60.29;45077.63;5010186;28;20871;-77
2022/10/03 04:54:04;;;;;;;2.00;1.37;;;;;;;-143.84;60.20;45094.78;5009864;28;20457;-77
2022/10/03 04:56:42;;;;;;;1.43;1.10;;;;;;;-143.84;59.61;45096.66;5009706;28;20435;-77
2022/10/03 04:59:28;;;;;;;3.17;1.37;;;;;;;-143.84;59.55;45085.25;5009177;28;20493;-77
2022/10/03 05:02:01;;;;;;;1.97;1.20;;;;;;;-143.84;58.97;45089.06;5009896;28;20444;-77
2022/10/03 05:04:38;;;;;;;2.80;1.40;;;;;;;-143.84;58.51;45094.78;5010207;28;20445;-77
2022/10/03 05:07:14;;;;;;;3.63;1.47;;;;;;;-143.84;57.38;45081.44;5010323;28;20474;-77
2022/10/03 05:09:50;;;;;;;1.77;1.03;;;;;;;-143.84;56.81;45094.78;5010343;28;20477;-74
2022/10/03 05:12:27;;;;;;;3.50;1.30;;;;;;;-143.84;56.08;45092.88;5010216;28;20482;-77
2022/10/03 05:15:15;;;;;;;2.10;1.63;;;;;;;-143.84;55.48;45102.38;5019485;28;20521;-77
2022/10/03 05:17:50;;;;;;;2.43;1.40;;;;;;;-143.84;53.93;45089.06;5015478;28;20440;-77
2022/10/03 05:20:33;;;;;;;3.03;1.20;;;;;;;-143.84;52.92;45079.53;5009945;28;20444;-76
2022/10/03 05:23:14;;;;;;;5.90;1.50;;;;;;;-143.84;51.92;45075.72;5009791;28;20456;-77
2022/10/03 05:25:54;;;;;;;3.97;1.27;;;;;;;-143.84;51.33;45070.00;5010024;28;20860;-77
2022/10/03 05:28:32;;;;;;;6.03;1.53;;;;;;;-143.84;50.94;45062.41;5009713;28;20943;-77
2022/10/03 05:31:07;;;;;;;3.93;1.90;;;;;;;-143.84;50.37;45073.81;5009489;28;20555;-77
2022/10/03 05:33:47;;;;;;;8.40;1.43;;;;;;;-143.84;48.90;45077.63;5009532;28;20446;-77
2022/10/03 05:36:26;;;;;;;4.63;1.53;;;;;;;-143.84;50.06;45043.34;5009604;28;20928;-77
2022/10/03 05:39:28;;;;;;;5.00;1.60;;;;;;;-143.84;51.19;45070.00;5014931;28;20488;-77
2022/10/03 05:42:14;;;;;;;4.00;1.90;;;;;;;-143.84;51.42;45062.41;5028487;28;20451;-77
2022/10/03 05:44:46;;;;;;;3.07;1.40;;;;;;;-143.84;51.29;45104.28;5029130;28;20451;-77
2022/10/03 05:50:43;;;;;;;5.03;2.83;;;;;;;-143.84;50.88;45071.91;5029513;28;20462;-77
2022/10/03 05:53:33;;;;;;;4.70;2.30;;;;;;;-143.84;50.96;45050.97;5009022;28;20963;-77
2022/10/03 05:56:08;;;;;;;7.03;3.30;;;;;;;-143.84;49.87;45081.44;5029120;28;20440;-77
2022/10/03 05:58:57;;;;;;;6.30;2.50;;;;;;;-143.84;48.73;45071.91;5029200;28;20860;-77
2022/10/03 06:02:06;;;;;;;5.33;2.60;;;;;;;-143.84;47.38;45045.25;5029135;28;21002;-77
2022/10/03 06:05:01;;;;;;;5.53;2.33;;;;;;;-143.84;46.67;45052.88;5028898;28;20450;-78
2022/10/03 06:07:39;;;;;;;5.73;2.10;;;;;;;-143.84;45.83;45085.25;5029033;28;20911;-77
2022/10/03 06:10:42;;;;;;;3.37;1.80;;;;;;;-143.84;44.11;45062.41;5029243;28;21344;-77
2022/10/03 06:13:17;;;;;;;4.83;2.43;;;;;;;-143.84;44.08;45064.31;5028972;28;20504;-77
2022/10/03 06:16:10;;;;;;;6.43;3.17;;;;;;;-143.84;43.70;45079.53;5028781;28;20492;-72
2022/10/03 06:19:05;;;;;;;9.47;2.13;;;;;;;-143.84;43.50;45054.78;5028760;28;20435;-72
2022/10/03 06:22:16;;;;;;;5.70;1.97;;;;;;;-143.84;43.06;45045.25;5028573;28;20453;-72
2022/10/03 06:25:13;;;;;;;5.27;2.20;;;;;;;-143.84;42.10;45035.75;5009730;28;20438;-72
2022/10/03 06:28:25;;;;;;;2.70;2.00;;;;;;;-143.84;41.60;45041.44;5028570;28;20479;-72
2022/10/03 06:31:12;;;;;;;3.20;2.00;;;;;;;-143.84;41.79;45052.88;5028687;28;20453;-72
2022/10/03 06:34:03;;;;;;;5.30;2.00;;;;;;;-143.84;41.20;45047.16;5025365;28;20446;-72
2022/10/03 06:36:54;;;;;;;15.03;1.70;;;;;;;-143.84;42.05;45030.03;5028464;28;20454;-72
2022/10/03 06:40:11;;;;;;;2.80;1.77;;;;;;;-143.84;41.45;45056.69;5028234;28;20800;-72
2022/10/03 06:42:55;;;;;;;5.80;1.70;;;;;;;-143.84;41.81;45045.25;4989717;28;20438;-72
2022/10/03 06:46:14;;;;;;;7.77;1.77;;;;;;;-143.84;40.87;45035.75;5028702;28;21269;-72
2022/10/03 06:49:08;;;;;;;5.40;1.70;;;;;;;-143.84;41.05;45047.16;4955982;28;20516;-72
2022/10/03 06:52:11;;;;;;;3.23;1.30;;;;;;;-143.84;40.71;45033.84;5028379;28;20448;-72
2022/10/03 06:55:15;;;;;;;6.53;1.53;;;;;;;-143.84;40.58;45037.66;5031985;28;20504;-72
2022/10/03 06:58:12;;;;;;;3.20;1.70;;;;;;;-143.84;41.56;45039.53;5032413;28;21024;-72
2022/10/03 07:00:54;;;;;;;5.10;1.80;;;;;;;-143.84;41.54;45060.50;5025654;28;20508;-72
2022/10/03 07:04:06;;;;;;;3.80;1.77;;;;;;;-143.84;40.83;45026.22;5032487;28;20495;-72
2022/10/03 07:07:06;;;;;;;9.47;2.90;;;;;;;-143.84;42.08;45047.16;5011455;28;20486;-72
2022/10/03 07:10:06;;;;;;;5.00;2.60;;;;;;;-143.84;41.81;45064.31;5031827;28;20463;-72
2022/10/03 07:13:01;;;;;;;4.33;2.43;;;;;;;-143.84;41.82;45060.50;4998751;28;20450;-72
2022/10/03 07:16:08;;;;;;;2.90;1.40;;;;;;;-143.84;41.79;45056.69;5029824;28;20443;-72
2022/10/03 07:19:05;;;;;;;2.70;1.43;;;;;;;-143.84;41.37;45043.34;5031439;28;20537;-77
2022/10/03 07:22:18;;;;;;;4.50;3.47;;;;;;;-143.84;41.47;45050.97;5032733;28;20965;-77
2022/10/03 07:25:32;;;;;;;3.53;1.60;;;;;;;-143.84;42.21;45060.50;5032357;28;20521;-77
2022/10/03 07:28:24;;;;;;;3.93;1.70;;;;;;;-143.84;42.54;45045.25;5032265;28;20474;-77
2022/10/03 07:31:06;;;;;;;3.73;1.37;;;;;;;-143.84;43.01;45030.03;5032091;28;20552;-77
2022/10/03 07:33:57;;;;;;;8.57;1.50;;;;;;;-143.84;43.45;45068.13;5031598;28;20500;-72
2022/10/03 07:40:28;;;;;;;4.70;1.47;;;;;;;-143.84;45.73;45071.91;5028362;28;20471;-77
2022/10/03 07:43:37;;;;;;;6.30;1.63;;;;;;;-143.84;46.09;45030.03;5016662;28;20442;-77
2022/10/03 07:46:37;;;;;;;4.63;1.60;;;;;;;-143.84;46.96;45073.81;5025044;28;20446;-78
2022/10/03 07:49:29;;;;;;;4.23;1.83;;;;;;;-143.84;47.56;45056.69;5011508;28;20470;-77
2022/10/03 07:52:22;;;;;;;2.83;1.57;;;;;;;-143.84;48.35;45085.25;5015102;28;20551;-77
2022/10/03 07:55:25;;;;;;;7.70;2.60;;;;;;;-143.84;49.09;45089.06;5017057;28;20469;-77
2022/10/03 07:58:25;;;;;;;3.93;1.87;;;;;;;-143.84;49.75;45071.91;4995246;28;21022;-76
2022/10/03 08:01:28;;;;;;;4.20;1.90;;;;;;;-143.84;49.33;45075.72;5011046;28;20815;-77
2022/10/03 08:04:44;;;;;;;4.00;2.27;;;;;;;-143.84;49.34;45071.91;5015040;28;20458;-77
2022/10/03 08:07:30;;;;;;;4.83;2.07;;;;;;;-143.84;49.38;45077.63;5012082;28;20501;-76
2022/10/03 08:10:17;;;;;;;3.23;2.27;;;;;;;-143.84;49.22;45089.06;5012600;28;20469;-76
2022/10/03 08:13:02;;;;;;;11.43;3.40;;;;;;;-143.84;48.74;45077.63;5011502;28;20858;-76
2022/10/03 08:15:47;;;;;;;5.67;2.90;;;;;;;-143.84;49.51;45100.47;5012131;28;20832;-75
2022/10/03 08:18:54;;;;;;;6.37;2.70;;;;;;;-143.84;50.23;45039.53;5011925;28;20480;-75
2022/10/03 08:21:31;;;;;;;11.70;3.20;;;;;;;-143.84;49.82;45077.63;5018902;28;20456;-76
2022/10/03 08:24:18;;;;;;;7.53;2.50;;;;;;;-143.84;50.18;45077.63;5013189;28;20971;-77
2022/10/03 08:27:13;;;;;;;4.10;2.33;;;;;;;-143.84;49.64;45033.84;5014139;28;20460;-77
2022/10/03 08:30:19;;;;;;;3.90;1.80;;;;;;;-143.84;49.76;45070.00;5014000;28;20558;-73
2022/10/03 08:32:58;;;;;;;5.20;1.77;;;;;;;-143.84;49.20;45070.00;4994880;28;20453;-72
2022/10/03 08:36:13;;;;;;;9.50;3.07;;;;;;;-143.84;49.60;45094.78;5009931;28;20892;-72
2022/10/03 08:38:57;;;;;;;10.60;1.27;;;;;;;-143.84;48.29;45087.16;4974290;28;20464;-73
2022/10/03 08:42:14;;;;;;;2.07;1.70;;;;;;;-143.84;47.67;45075.72;5018711;28;20523;-73
2022/10/03 08:45:19;;;;;;;2.50;1.47;;;;;;;-143.84;48.40;45079.53;5009756;28;20469;-74
2022/10/03 08:48:23;;;;;;;9.83;1.93;;;;;;;-143.84;48.07;45070.00;5009307;28;21276;-73
2022/10/03 08:51:16;;;;;;;3.60;1.63;;;;;;;-143.84;47.49;45064.31;5009783;28;20447;-77
2022/10/03 08:54:04;;;;;;;4.00;1.90;;;;;;;-143.84;47.52;45073.81;4997328;28;20458;-77
2022/10/03 08:56:48;;;;;;;3.43;1.37;;;;;;;-143.84;46.23;45054.78;5013484;28;20465;-73
2022/10/03 08:59:43;;;;;;;6.10;1.40;;;;;;;-143.84;46.89;45066.22;5010630;28;20458;-72
2022/10/03 09:03:04;;;;;;;3.33;1.70;;;;;;;-143.84;47.21;45071.91;5009484;28;20522;-73
2022/10/03 09:06:18;;;;;;;6.83;1.60;;;;;;;-143.84;47.15;45062.41;4933304;29;20966;-73
2022/10/03 09:09:04;;;;;;;4.80;1.93;;;;;;;-143.84;46.57;45062.41;4929995;29;21010;-73
2022/10/03 09:11:46;;;;;;;4.57;2.03;;;;;;;-143.84;47.28;45058.59;5002988;28;20490;-73
2022/10/03 09:14:33;;;;;;;1.77;1.13;;;;;;;-143.84;47.80;45045.25;5017660;28;20463;-73
2022/10/03 09:17:26;;;;;;;2.70;1.77;;;;;;;-143.84;46.71;45064.31;5016460;28;21438;-73
2022/10/03 09:20:31;;;;;;;1.57;1.33;;;;;;;-143.84;47.87;45049.06;5010914;28;20801;-73
2022/10/03 09:23:23;;;;;;;4.50;1.40;;;;;;;-143.84;48.20;45077.63;5007698;28;20479;-73
2022/10/03 09:29:14;;;;;;;9.50;2.53;;;;;;;-143.84;47.99;45049.06;5104184;27;20541;-72
2022/10/03 09:32:23;;;;;;;29.00;15.17;;;;;;;-143.84;48.43;45041.44;5092692;28;20467;-73
2022/10/03 09:35:18;;;;;;;19.00;7.63;;;;;;;-143.84;48.64;45081.44;5105231;28;20509;-72
2022/10/03 09:38:14;;;;;;;11.93;6.83;;;;;;;-143.84;49.88;45049.06;5106002;28;20467;-72
2022/10/03 09:41:27;;;;;;;108.10;42.07;;;;;;;-143.84;49.12;45094.78;5086350;28;21026;-72
2022/10/03 09:44:17;;;;;;;116.57;50.70;;;;;;;-143.84;47.97;45049.06;5090459;28;20527;-72
2022/10/03 09:50:30;;;;;;;7.53;3.80;;;;;;;-143.84;52.06;45052.88;5103783;28;20579;-72
2022/10/03 09:53:28;;;;;;;16.20;7.77;;;;;;;-143.84;53.90;45090.97;5105506;28;20451;-72
2022/10/03 09:56:27;;;;;;;63.80;33.27;;;;;;;-143.84;56.21;45075.72;5105469;28;20456;-72
2022/10/03 09:59:13;;;;;;;27.93;10.50;;;;;;;-143.84;58.59;45077.63;5063894;28;20459;-72
2022/10/03 10:01:49;;;;;;;38.43;23.07;;;;;;;-143.84;60.50;45089.06;5102516;28;21027;-72
2022/10/03 10:04:52;;;;;;;6.90;3.40;;;;;;;-143.84;62.80;45079.53;5103188;28;20451;-72
2022/10/03 10:07:51;;;;;;;11.70;6.27;;;;;;;-143.84;63.25;45079.53;5103053;28;21384;-72
2022/10/03 10:11:05;;;;;;;53.83;23.13;;;;;;;-143.84;65.40;45081.44;5088359;28;20461;-72
2022/10/03 10:14:18;;;;;;;31.67;14.73;;;;;;;-143.84;66.97;45090.97;5079448;28;20976;-72
2022/10/03 10:17:41;;;;;;;43.30;18.47;;;;;;;-143.84;67.30;45096.66;5099082;28;20451;-72
2022/10/03 10:20:25;;;;;;;104.70;37.90;;;;;;;-143.84;67.73;45075.72;5103679;28;20501;-73
2022/10/03 10:23:17;;;;;;;32.00;11.87;;;;;;;-143.84;69.59;45092.88;5103150;28;20483;-72
2022/10/03 10:26:30;;;;;;;14.90;7.60;;;;;;;-143.84;70.73;45108.09;5105173;28;20447;-72
2022/10/03 10:29:32;;;;;;;25.03;9.90;;;;;;;-143.84;72.53;45068.13;5103470;28;20987;-73
2022/10/03 10:32:52;;;;;;;55.70;19.27;;;;;;;-143.84;74.34;45102.38;5104105;28;20975;-73
2022/10/03 10:35:50;;;;;;;14.53;7.40;;;;;;;-143.84;75.14;45073.81;5103699;28;20503;-73
2022/10/03 10:38:31;;;;;;;70.23;28.53;;;;;;;-143.84;75.93;45083.34;5098129;28;20470;-72
2022/10/03 10:41:44;;;;;;;43.30;21.20;;;;;;;-143.84;77.43;45102.38;5091418;28;20450;-73
2022/10/03 10:44:52;;;;;;;7.13;3.83;;;;;;;-143.84;78.25;45075.72;5090693;28;20471;-73
2022/10/03 10:48:00;;;;;;;10.70;3.20;;;;;;;-143.84;78.89;45110.00;5089342;28;20507;-73
2022/10/03 10:51:08;;;;;;;13.43;3.60;;;;;;;-143.84;79.72;45117.63;5085782;28;20461;-73
2022/10/03 10:54:16;;;;;;;12.17;6.43;;;;;;;-143.84;81.50;45134.75;5091411;28;20488;-73
2022/10/03 10:57:08;;;;;;;5.00;2.83;;;;;;;-143.84;81.51;45104.28;5088228;28;20519;-73
2022/10/03 11:00:04;;;;;;;7.27;4.70;;;;;;;-143.84;81.84;45110.00;5090805;28;20844;-73
2022/10/03 11:03:22;;;;;;;6.40;4.27;;;;;;;-143.84;82.33;45100.47;5090218;28;20526;-72
2022/10/03 11:06:31;;;;;;;10.70;4.30;;;;;;;-143.84;82.26;45110.00;5091370;28;20450;-73
2022/10/03 11:09:46;;;;;;;10.23;4.53;;;;;;;-143.84;82.47;45104.28;5089465;28;20536;-73
2022/10/03 11:12:57;;;;;;;2.93;2.60;;;;;;;-143.84;81.33;45098.56;5047477;28;20521;-73
2022/10/03 11:16:15;;;;;;;7.90;2.40;;;;;;;-143.84;81.51;45130.94;5046150;28;20928;-73
2022/10/03 11:19:17;;;;;;;8.27;4.17;;;;;;;-143.84;81.59;45110.00;5089643;28;20460;-72
2022/10/03 11:22:20;;;;;;;8.43;3.77;;;;;;;-143.84;82.18;45098.56;5089786;28;20443;-73
2022/10/03 11:25:16;;;;;;;8.03;4.30;;;;;;;-143.84;81.81;45098.56;5089989;28;20824;-72
2022/10/03 11:28:31;;;;;;;4.50;2.40;;;;;;;-143.84;82.72;45098.56;5072786;28;20501;-73
2022/10/03 11:32:02;;;;;;;3.70;2.63;;;;;;;-143.84;82.72;45094.78;5090132;28;20512;-73
2022/10/03 11:35:05;;;;;;;6.37;3.03;;;;;;;-143.84;82.19;45092.88;5089258;28;20560;-73
2022/10/03 11:37:52;;;;;;;4.23;3.50;;;;;;;-143.84;82.13;45079.53;5089167;28;20451;-73
2022/10/03 11:40:42;;;;;;;3.23;2.93;;;;;;;-143.84;81.99;45110.00;5088925;28;20512;-73
2022/10/03 11:43:59;;;;;;;4.93;3.37;;;;;;;-143.84;82.05;45100.47;5087647;28;20459;-73
2022/10/03 11:47:10;;;;;;;4.90;2.50;;;;;;;-143.84;82.05;45098.56;5089204;28;20452;-72
2022/10/03 11:50:01;;;;;;;9.67;2.50;;;;;;;-143.84;81.38;45090.97;5007041;28;20477;-72
2022/10/03 11:52:34;;;;;;;4.00;2.53;;;;;;;-143.84;80.90;45089.06;5006681;28;20444;-72
2022/10/03 11:55:24;;;;;;;3.03;1.90;;;;;;;-143.84;81.01;45117.63;5059441;28;20458;-72
2022/10/03 11:58:03;;;;;;;5.30;3.10;;;;;;;-143.84;81.41;45106.19;5088192;28;20467;-72
2022/10/03 12:00:35;;;;;;;8.53;2.97;;;;;;;-143.84;81.03;45089.06;5089578;28;20451;-72
2022/10/03 12:03:19;;;;;;;3.37;3.10;;;;;;;-143.84;81.37;45081.44;5088822;28;20458;-73
2022/10/03 12:08:57;;;;;;;4.47;3.40;;;;;;;-143.84;82.07;45098.56;5088935;28;20475;-72
2022/10/03 12:11:32;;;;;;;9.33;3.10;;;;;;;-143.84;81.71;45138.56;5087599;28;20532;-72
2022/10/03 12:14:17;;;;;;;2.10;2.00;;;;;;;-143.84;81.96;45106.19;5089130;28;20459;-72
2022/10/03 12:17:01;;;;;;;4.20;2.33;;;;;;;-143.84;80.11;45123.34;5088885;28;20462;-72
2022/10/03 12:19:34;;;;;;;5.83;2.53;;;;;;;-143.84;79.92;45102.38;5088298;28;20524;-72
2022/10/03 12:22:13;;;;;;;4.90;2.00;;;;;;;-143.84;78.69;45096.66;5089608;28;20914;-72
2022/10/03 12:24:44;;;;;;;6.07;2.93;;;;;;;-143.84;78.17;45106.19;5088603;28;20444;-72
2022/10/03 12:27:23;;;;;;;7.30;2.53;;;;;;;-143.84;78.20;45089.06;5088164;28;20496;-72
2022/10/03 12:29:57;;;;;;;4.97;2.80;;;;;;;-143.84;78.55;45117.63;5086327;28;20512;-72
2022/10/03 12:32:37;;;;;;;4.70;2.60;;;;;;;-143.84;79.37;45117.63;5086048;28;20528;-72
2022/10/03 12:35:18;;;;;;;7.67;2.93;;;;;;;-143.84;78.15;45085.25;5089017;28;20811;-71
2022/10/03 12:37:57;;;;;;;14.07;2.30;;;;;;;-143.84;78.05;45108.09;5088677;28;20470;-72
2022/10/03 12:40:30;;;;;;;4.43;3.07;;;;;;;-143.84;77.53;45081.44;5086322;28;20494;-73
2022/10/03 12:43:11;;;;;;;5.00;2.47;;;;;;;-143.84;76.87;45098.56;5088916;28;20503;-73
2022/10/03 12:45:44;;;;;;;14.40;10.30;;;;;;;-143.84;76.75;45083.34;5088660;28;21023;-72
2022/10/03 12:48:34;;;;;;;2.47;1.60;;;;;;;-143.84;76.12;45083.34;5088631;28;20477;-72
2022/10/03 12:51:10;;;;;;;2.83;1.83;;;;;;;-143.84;74.89;45085.25;5088792;28;20501;-71
2022/10/03 12:53:50;;;;;;;4.07;1.97;;;;;;;-143.84;74.92;45071.91;5088568;28;20962;-72
2022/10/03 12:56:35;;;;;;;1.90;1.63;;;;;;;-143.84;71.92;45085.25;5087715;28;20898;-72
2022/10/03 12:59:19;;;;;;;1.60;1.33;;;;;;;-143.84;68.92;45068.13;5087110;28;20968;-72
2022/10/03 13:02:22;;;;;;;1.20;1.10;;;;;;;-143.84;69.66;45064.31;5088150;28;20462;-72
2022/10/03 13:05:09;;;;;;;1.83;1.17;;;;;;;-143.84;69.62;45079.53;5088452;28;20459;-72
2022/10/03 13:07:51;;;;;;;8.53;2.30;;;;;;;-143.84;70.45;45098.56;5087282;28;20523;-72
2022/10/03 13:10:30;;;;;;;7.53;2.53;;;;;;;-143.84;70.04;45075.72;5087217;28;20457;-72
2022/10/03 13:13:12;;;;;;;7.40;1.67;;;;;;;-143.84;69.94;45077.63;5087409;28;20829;-72
2022/10/03 13:16:13;;;;;;;23.10;5.27;;;;;;;-143.84;69.69;45085.25;5087469;28;20471;-72
2022/10/03 13:18:49;;;;;;;3.90;1.80;;;;;;;-143.84;69.94;45110.00;5087686;28;20452;-72
2022/10/03 13:21:20;;;;;;;1.67;1.47;;;;;;;-143.84;70.38;45094.78;5086038;28;20557;-72
2022/10/03 13:23:54;;;;;;;5.83;2.53;;;;;;;-143.84;70.70;45098.56;5085868;28;20450;-72